PWSweather.com
Personal Weather Stations
Station Observations
GRD01
Warsaw, LesznoPL 05-084

WarsawLesznoPL 05-084

Lat: 52.257404, Lon: 20.564847

Elevation: 298

Station Type: WH3080

http://pogoda.kampinos.waw.pl

High Low Average
Temperature 63.0°F17.2°C 46.0°F7.8°C 53.4°F11.9°C
Dew Point 54.0°F12.2°C 42.0°F5.6°C 47.8°F8.8°C
Winds 9.8 mph 15.8 kmh 1.6 mph 2.6 kmh 4.0 mph ENE6.4 kmh ENE
Wind Gusts 15.2 mph24.5 kmh 2.2 mph3.5 kmh 9.0 mph14.5 kmh
Humidity 100% 64% 82%
Pressure 30.55 in1034.5 mb 30.46 in1031.5 mb -
Precipitation 0.00 in0.0 mm - -
Hour Temp Dew Point Humidity Winds Wind Gusts Pressure Precip Precip Rate Daily Precip Total
12:00 AM 47.3°F8.5°C 44.2°F6.8°C 89% 3.1 mph W5.0 kmh W 3.1 mph5.0 kmh 30.46 in1031.5 mb 0.00 in0.0 mm 0.00 in0.0 mm 0.00 in0.0 mm
12:11 AM 47.3°F8.5°C 44.2°F6.8°C 89% 2.2 mph W3.5 kmh W 3.1 mph5.0 kmh 30.02 in1016.6 mb 0.00 in0.0 mm 0.00 in0.0 mm 0.00 in0.0 mm
12:15 AM 47.1°F8.4°C 44.0°F6.7°C 89% 1.6 mph W2.6 kmh W 2.2 mph3.5 kmh 30.47 in1031.8 mb 0.00 in0.0 mm 0.00 in0.0 mm 0.00 in0.0 mm
12:30 AM 46.9°F8.3°C 43.9°F6.6°C 89% 1.6 mph W2.6 kmh W 3.1 mph5.0 kmh 30.47 in1031.8 mb 0.00 in0.0 mm 0.00 in0.0 mm 0.00 in0.0 mm
12:41 AM 46.8°F8.2°C 44.0°F6.7°C 90% 1.6 mph W2.6 kmh W 2.2 mph3.5 kmh 30.03 in1016.9 mb 0.00 in0.0 mm 0.00 in0.0 mm 0.00 in0.0 mm
12:45 AM 46.8°F8.2°C 44.0°F6.7°C 90% 1.6 mph W2.6 kmh W 2.2 mph3.5 kmh 30.47 in1031.8 mb 0.00 in0.0 mm 0.00 in0.0 mm 0.00 in0.0 mm
01:00 AM 46.6°F8.1°C 43.8°F6.6°C 90% 2.2 mph W3.5 kmh W 3.8 mph6.1 kmh 30.47 in1031.8 mb 0.00 in0.0 mm 0.00 in0.0 mm 0.00 in0.0 mm
01:11 AM 46.2°F7.9°C 43.4°F6.3°C 90% 1.6 mph W2.6 kmh W 2.2 mph3.5 kmh 30.02 in1016.6 mb 0.00 in0.0 mm 0.00 in0.0 mm 0.00 in0.0 mm
01:15 AM 46.2°F7.9°C 43.4°F6.3°C 90% 2.2 mph W3.5 kmh W 3.8 mph6.1 kmh 30.46 in1031.5 mb 0.00 in0.0 mm 0.00 in0.0 mm 0.00 in0.0 mm
01:30 AM 46.0°F7.8°C 43.3°F6.3°C 90% 2.2 mph N3.5 kmh N 5.4 mph8.7 kmh 30.46 in1031.5 mb 0.00 in0.0 mm 0.00 in0.0 mm 0.00 in0.0 mm
01:41 AM 46.0°F7.8°C 43.3°F6.3°C 90% 3.1 mph N5.0 kmh N 3.8 mph6.1 kmh 30.03 in1016.9 mb 0.00 in0.0 mm 0.00 in0.0 mm 0.00 in0.0 mm
01:45 AM 46.4°F8.0°C 43.9°F6.6°C 91% 3.1 mph N5.0 kmh N 5.4 mph8.7 kmh 30.47 in1031.8 mb 0.00 in0.0 mm 0.00 in0.0 mm 0.00 in0.0 mm
02:00 AM 46.6°F8.1°C 44.1°F6.7°C 91% 2.2 mph N3.5 kmh N 4.5 mph7.2 kmh 30.47 in1031.8 mb 0.00 in0.0 mm 0.00 in0.0 mm 0.00 in0.0 mm
02:11 AM 46.6°F8.1°C 44.1°F6.7°C 91% 3.1 mph N5.0 kmh N 4.5 mph7.2 kmh 30.03 in1016.9 mb 0.00 in0.0 mm 0.00 in0.0 mm 0.00 in0.0 mm
02:15 AM 48.4°F9.1°C 46.2°F7.9°C 92% 4.5 mph N7.2 kmh N 6.0 mph9.7 kmh 30.46 in1031.5 mb 0.00 in0.0 mm 0.00 in0.0 mm 0.00 in0.0 mm
02:30 AM 49.8°F9.9°C 47.9°F8.8°C 93% 4.5 mph NNE7.2 kmh NNE 7.6 mph12.2 kmh 30.46 in1031.5 mb 0.00 in0.0 mm 0.00 in0.0 mm 0.00 in0.0 mm
02:41 AM 49.8°F9.9°C 47.9°F8.8°C 93% 4.5 mph NE7.2 kmh NE 5.4 mph8.7 kmh 30.02 in1016.6 mb 0.00 in0.0 mm 0.00 in0.0 mm 0.00 in0.0 mm
02:45 AM 50.2°F10.1°C 48.5°F9.2°C 94% 5.4 mph NNE8.7 kmh NNE 8.3 mph13.4 kmh 30.47 in1031.8 mb 0.00 in0.0 mm 0.00 in0.0 mm 0.00 in0.0 mm
03:00 AM 50.0°F10.0°C 48.3°F9.1°C 94% 3.1 mph NNE5.0 kmh NNE 6.0 mph9.7 kmh 30.48 in1032.2 mb 0.00 in0.0 mm 0.00 in0.0 mm 0.00 in0.0 mm
03:11 AM 49.8°F9.9°C 48.2°F9.0°C 94% 4.5 mph NE7.2 kmh NE 6.0 mph9.7 kmh 30.02 in1016.6 mb 0.00 in0.0 mm 0.00 in0.0 mm 0.00 in0.0 mm
03:15 AM 49.6°F9.8°C 48.0°F8.9°C 94% 4.5 mph NE7.2 kmh NE 8.3 mph13.4 kmh 30.47 in1031.8 mb 0.00 in0.0 mm 0.00 in0.0 mm 0.00 in0.0 mm
03:30 AM 49.5°F9.7°C 47.8°F8.8°C 94% 4.5 mph NNE7.2 kmh NNE 6.9 mph11.1 kmh 30.48 in1032.2 mb 0.00 in0.0 mm 0.00 in0.0 mm 0.00 in0.0 mm
03:41 AM 49.5°F9.7°C 47.8°F8.8°C 94% 4.5 mph NE7.2 kmh NE 6.0 mph9.7 kmh 30.03 in1016.9 mb 0.00 in0.0 mm 0.00 in0.0 mm 0.00 in0.0 mm
03:45 AM 49.3°F9.6°C 47.6°F8.7°C 94% 6.0 mph NE9.7 kmh NE 8.3 mph13.4 kmh 30.47 in1031.8 mb 0.00 in0.0 mm 0.00 in0.0 mm 0.00 in0.0 mm
04:00 AM 49.3°F9.6°C 47.6°F8.7°C 94% 3.8 mph NE6.1 kmh NE 6.9 mph11.1 kmh 30.48 in1032.2 mb 0.00 in0.0 mm 0.00 in0.0 mm 0.00 in0.0 mm
04:11 AM 49.3°F9.6°C 47.6°F8.7°C 94% 4.5 mph E7.2 kmh E 6.0 mph9.7 kmh 30.03 in1016.9 mb 0.00 in0.0 mm 0.00 in0.0 mm 0.00 in0.0 mm
04:15 AM 49.3°F9.6°C 47.6°F8.7°C 94% 3.8 mph NNE6.1 kmh NNE 9.8 mph15.8 kmh 30.48 in1032.2 mb 0.00 in0.0 mm 0.00 in0.0 mm 0.00 in0.0 mm
04:30 AM 49.3°F9.6°C 47.6°F8.7°C 94% 3.1 mph NNE5.0 kmh NNE 8.3 mph13.4 kmh 30.49 in1032.5 mb 0.00 in0.0 mm 0.00 in0.0 mm 0.00 in0.0 mm
04:41 AM 49.3°F9.6°C 47.6°F8.7°C 94% 6.0 mph N9.7 kmh N 8.3 mph13.4 kmh 30.04 in1017.3 mb 0.00 in0.0 mm 0.00 in0.0 mm 0.00 in0.0 mm
04:45 AM 49.6°F9.8°C 48.0°F8.9°C 94% 6.0 mph NNE9.7 kmh NNE 8.3 mph13.4 kmh 30.49 in1032.5 mb 0.00 in0.0 mm 0.00 in0.0 mm 0.00 in0.0 mm
05:00 AM 49.8°F9.9°C 48.2°F9.0°C 94% 6.9 mph NE11.1 kmh NE 11.4 mph18.3 kmh 30.49 in1032.5 mb 0.00 in0.0 mm 0.00 in0.0 mm 0.00 in0.0 mm
05:11 AM 49.8°F9.9°C 48.2°F9.0°C 94% 4.5 mph NE7.2 kmh NE 6.0 mph9.7 kmh 30.05 in1017.6 mb 0.00 in0.0 mm 0.00 in0.0 mm 0.00 in0.0 mm
05:15 AM 49.6°F9.8°C 48.0°F8.9°C 94% 3.8 mph NNE6.1 kmh NNE 9.2 mph14.8 kmh 30.49 in1032.5 mb 0.00 in0.0 mm 0.00 in0.0 mm 0.00 in0.0 mm
05:30 AM 49.5°F9.7°C 47.8°F8.8°C 94% 5.4 mph NNE8.7 kmh NNE 9.2 mph14.8 kmh 30.50 in1032.8 mb 0.00 in0.0 mm 0.00 in0.0 mm 0.00 in0.0 mm
05:41 AM 49.6°F9.8°C 48.0°F8.9°C 94% 5.4 mph NE8.7 kmh NE 6.9 mph11.1 kmh 30.06 in1017.9 mb 0.00 in0.0 mm 0.00 in0.0 mm 0.00 in0.0 mm
05:45 AM 49.8°F9.9°C 48.4°F9.1°C 95% 3.8 mph NE6.1 kmh NE 11.4 mph18.3 kmh 30.50 in1032.8 mb 0.00 in0.0 mm 0.00 in0.0 mm 0.00 in0.0 mm
06:00 AM 50.2°F10.1°C 48.8°F9.3°C 95% 6.0 mph NE9.7 kmh NE 10.7 mph17.2 kmh 30.51 in1033.2 mb 0.00 in0.0 mm 0.00 in0.0 mm 0.00 in0.0 mm
06:11 AM 50.2°F10.1°C 48.8°F9.3°C 95% 6.0 mph N9.7 kmh N 9.8 mph15.8 kmh 30.07 in1018.3 mb 0.00 in0.0 mm 0.00 in0.0 mm 0.00 in0.0 mm
06:15 AM 50.5°F10.3°C 49.2°F9.6°C 95% 4.5 mph NE7.2 kmh NE 10.7 mph17.2 kmh 30.51 in1033.2 mb 0.00 in0.0 mm 0.00 in0.0 mm 0.00 in0.0 mm
06:30 AM 51.1°F10.6°C 50.0°F10.0°C 96% 6.0 mph NE9.7 kmh NE 9.8 mph15.8 kmh 30.51 in1033.2 mb 0.00 in0.0 mm 0.00 in0.0 mm 0.00 in0.0 mm
06:41 AM 51.3°F10.7°C 50.2°F10.1°C 96% 8.3 mph NE13.4 kmh NE 13.0 mph20.9 kmh 30.07 in1018.3 mb 0.00 in0.0 mm 0.00 in0.0 mm 0.00 in0.0 mm
06:45 AM 51.6°F10.9°C 50.5°F10.3°C 96% 4.5 mph NE7.2 kmh NE 11.4 mph18.3 kmh 30.51 in1033.2 mb 0.00 in0.0 mm 0.00 in0.0 mm 0.00 in0.0 mm
07:00 AM 52.0°F11.1°C 51.2°F10.7°C 97% 5.4 mph SE8.7 kmh SE 10.7 mph17.2 kmh 30.52 in1033.5 mb 0.00 in0.0 mm 0.00 in0.0 mm 0.00 in0.0 mm
07:11 AM 52.2°F11.2°C 51.3°F10.7°C 97% 6.9 mph E11.1 kmh E 8.3 mph13.4 kmh 30.07 in1018.3 mb 0.00 in0.0 mm 0.00 in0.0 mm 0.00 in0.0 mm
07:15 AM 52.5°F11.4°C 51.7°F10.9°C 97% 5.4 mph E8.7 kmh E 11.4 mph18.3 kmh 30.52 in1033.5 mb 0.00 in0.0 mm 0.00 in0.0 mm 0.00 in0.0 mm
07:30 AM 52.9°F11.6°C 52.1°F11.2°C 97% 2.2 mph E3.5 kmh E 8.3 mph13.4 kmh 30.53 in1033.9 mb 0.00 in0.0 mm 0.00 in0.0 mm 0.00 in0.0 mm
07:41 AM 52.9°F11.6°C 52.1°F11.2°C 97% 4.5 mph NE7.2 kmh NE 6.9 mph11.1 kmh 30.08 in1018.6 mb 0.00 in0.0 mm 0.00 in0.0 mm 0.00 in0.0 mm
07:45 AM 53.4°F11.9°C 53.4°F11.9°C 100% 5.4 mph NE8.7 kmh NE 10.7 mph17.2 kmh 30.52 in1033.5 mb 0.00 in0.0 mm 0.00 in0.0 mm 0.00 in0.0 mm
08:00 AM 54.0°F12.2°C 54.0°F12.2°C 100% 7.6 mph NE12.2 kmh NE 8.3 mph13.4 kmh 30.53 in1033.9 mb 0.00 in0.0 mm 0.00 in0.0 mm 0.00 in0.0 mm
08:11 AM 54.1°F12.3°C 54.1°F12.3°C 100% 3.1 mph N5.0 kmh N 4.5 mph7.2 kmh 30.08 in1018.6 mb 0.00 in0.0 mm 0.00 in0.0 mm 0.00 in0.0 mm
08:15 AM 54.3°F12.4°C 53.5°F11.9°C 97% 3.1 mph NE5.0 kmh NE 11.4 mph18.3 kmh 30.53 in1033.9 mb 0.00 in0.0 mm 0.00 in0.0 mm 0.00 in0.0 mm
08:30 AM 54.7°F12.6°C 53.0°F11.7°C 94% 4.5 mph ENE7.2 kmh ENE 8.3 mph13.4 kmh 30.54 in1034.2 mb 0.00 in0.0 mm 0.00 in0.0 mm 0.00 in0.0 mm
08:41 AM 54.9°F12.7°C 53.2°F11.8°C 94% 5.4 mph N8.7 kmh N 8.3 mph13.4 kmh 30.09 in1019.0 mb 0.00 in0.0 mm 0.00 in0.0 mm 0.00 in0.0 mm
08:45 AM 54.9°F12.7°C 52.9°F11.6°C 93% 6.0 mph NE9.7 kmh NE 10.7 mph17.2 kmh 30.54 in1034.2 mb 0.00 in0.0 mm 0.00 in0.0 mm 0.00 in0.0 mm
09:00 AM 55.0°F12.8°C 52.5°F11.4°C 91% 3.8 mph NE6.1 kmh NE 8.3 mph13.4 kmh 30.54 in1034.2 mb 0.00 in0.0 mm 0.00 in0.0 mm 0.00 in0.0 mm
09:11 AM 55.0°F12.8°C 52.5°F11.4°C 91% 3.8 mph N6.1 kmh N 5.4 mph8.7 kmh 30.09 in1019.0 mb 0.00 in0.0 mm 0.00 in0.0 mm 0.00 in0.0 mm
09:15 AM 55.0°F12.8°C 52.2°F11.2°C 90% 3.1 mph NNE5.0 kmh NNE 6.9 mph11.1 kmh 30.54 in1034.2 mb 0.00 in0.0 mm 0.00 in0.0 mm 0.00 in0.0 mm
09:30 AM 55.0°F12.8°C 51.9°F11.1°C 89% 3.8 mph NE6.1 kmh NE 8.3 mph13.4 kmh 30.54 in1034.2 mb 0.00 in0.0 mm 0.00 in0.0 mm 0.00 in0.0 mm
09:41 AM 55.0°F12.8°C 51.9°F11.1°C 89% 4.5 mph NE7.2 kmh NE 6.0 mph9.7 kmh 30.09 in1019.0 mb 0.00 in0.0 mm 0.00 in0.0 mm 0.00 in0.0 mm
09:45 AM 55.2°F12.9°C 51.7°F10.9°C 88% 5.4 mph NE8.7 kmh NE 6.9 mph11.1 kmh 30.54 in1034.2 mb 0.00 in0.0 mm 0.00 in0.0 mm 0.00 in0.0 mm
10:00 AM 55.2°F12.9°C 51.4°F10.8°C 87% 5.4 mph NNE8.7 kmh NNE 9.8 mph15.8 kmh 30.54 in1034.2 mb 0.00 in0.0 mm 0.00 in0.0 mm 0.00 in0.0 mm
10:11 AM 55.4°F13.0°C 51.6°F10.9°C 87% 5.4 mph NE8.7 kmh NE 6.9 mph11.1 kmh 30.09 in1019.0 mb 0.00 in0.0 mm 0.00 in0.0 mm 0.00 in0.0 mm
10:15 AM 55.6°F13.1°C 51.5°F10.8°C 86% 4.5 mph NNE7.2 kmh NNE 12.1 mph19.5 kmh 30.54 in1034.2 mb 0.00 in0.0 mm 0.00 in0.0 mm 0.00 in0.0 mm
10:30 AM 56.3°F13.5°C 51.8°F11.0°C 85% 4.5 mph NE7.2 kmh NE 8.3 mph13.4 kmh 30.54 in1034.2 mb 0.00 in0.0 mm 0.00 in0.0 mm 0.00 in0.0 mm
10:41 AM 56.5°F13.6°C 51.7°F10.9°C 84% 4.5 mph NE7.2 kmh NE 6.0 mph9.7 kmh 30.09 in1019.0 mb 0.00 in0.0 mm 0.00 in0.0 mm 0.00 in0.0 mm
10:45 AM 57.2°F14.0°C 52.1°F11.2°C 83% 3.8 mph NE6.1 kmh NE 11.4 mph18.3 kmh 30.54 in1034.2 mb 0.00 in0.0 mm 0.00 in0.0 mm 0.00 in0.0 mm
11:00 AM 57.4°F14.1°C 51.6°F10.9°C 81% 4.5 mph NNE7.2 kmh NNE 9.8 mph15.8 kmh 30.54 in1034.2 mb 0.00 in0.0 mm 0.00 in0.0 mm 0.00 in0.0 mm
11:11 AM 57.4°F14.1°C 51.6°F10.9°C 81% 3.8 mph N6.1 kmh N 5.4 mph8.7 kmh 30.09 in1019.0 mb 0.00 in0.0 mm 0.00 in0.0 mm 0.00 in0.0 mm
11:15 AM 57.7°F14.3°C 51.9°F11.1°C 81% 5.4 mph NE8.7 kmh NE 10.7 mph17.2 kmh 30.54 in1034.2 mb 0.00 in0.0 mm 0.00 in0.0 mm 0.00 in0.0 mm
11:30 AM 58.3°F14.6°C 51.8°F11.0°C 79% 6.0 mph E9.7 kmh E 12.1 mph19.5 kmh 30.53 in1033.9 mb 0.00 in0.0 mm 0.00 in0.0 mm 0.00 in0.0 mm
11:41 AM 58.5°F14.7°C 51.6°F10.9°C 78% 6.0 mph E9.7 kmh E 9.2 mph14.8 kmh 30.09 in1019.0 mb 0.00 in0.0 mm 0.00 in0.0 mm 0.00 in0.0 mm
11:45 AM 58.6°F14.8°C 51.4°F10.8°C 77% 7.6 mph ENE12.2 kmh ENE 10.7 mph17.2 kmh 30.54 in1034.2 mb 0.00 in0.0 mm 0.00 in0.0 mm 0.00 in0.0 mm
12:00 PM 59.2°F15.1°C 51.3°F10.7°C 75% 6.9 mph ENE11.1 kmh ENE 11.4 mph18.3 kmh 30.54 in1034.2 mb 0.00 in0.0 mm 0.00 in0.0 mm 0.00 in0.0 mm
12:11 PM 59.2°F15.1°C 51.3°F10.7°C 75% 5.4 mph E8.7 kmh E 9.2 mph14.8 kmh 30.09 in1019.0 mb 0.00 in0.0 mm 0.00 in0.0 mm 0.00 in0.0 mm
12:15 PM 60.1°F15.6°C 51.8°F11.0°C 74% 6.9 mph ESE11.1 kmh ESE 12.1 mph19.5 kmh 30.53 in1033.9 mb 0.00 in0.0 mm 0.00 in0.0 mm 0.00 in0.0 mm
12:30 PM 60.3°F15.7°C 51.2°F10.7°C 72% 3.1 mph NE5.0 kmh NE 9.8 mph15.8 kmh 30.53 in1033.9 mb 0.00 in0.0 mm 0.00 in0.0 mm 0.00 in0.0 mm
12:41 PM 60.4°F15.8°C 51.4°F10.8°C 72% 6.9 mph SE11.1 kmh SE 9.2 mph14.8 kmh 30.09 in1019.0 mb 0.00 in0.0 mm 0.00 in0.0 mm 0.00 in0.0 mm
12:45 PM 60.8°F16.0°C 51.3°F10.7°C 71% 1.6 mph ENE2.6 kmh ENE 11.4 mph18.3 kmh 30.53 in1033.9 mb 0.00 in0.0 mm 0.00 in0.0 mm 0.00 in0.0 mm
01:00 PM 60.8°F16.0°C 51.3°F10.7°C 71% 5.4 mph NE8.7 kmh NE 13.0 mph20.9 kmh 30.53 in1033.9 mb 0.00 in0.0 mm 0.00 in0.0 mm 0.00 in0.0 mm
01:11 PM 60.8°F16.0°C 51.3°F10.7°C 71% 5.4 mph NE8.7 kmh NE 7.6 mph12.2 kmh 30.08 in1018.6 mb 0.00 in0.0 mm 0.00 in0.0 mm 0.00 in0.0 mm
01:15 PM 61.2°F16.2°C 51.3°F10.7°C 70% 9.8 mph ENE15.8 kmh ENE 12.1 mph19.5 kmh 30.53 in1033.9 mb 0.00 in0.0 mm 0.00 in0.0 mm 0.00 in0.0 mm
01:30 PM 61.2°F16.2°C 50.9°F10.5°C 69% 5.4 mph ENE8.7 kmh ENE 11.4 mph18.3 kmh 30.54 in1034.2 mb 0.00 in0.0 mm 0.00 in0.0 mm 0.00 in0.0 mm
01:41 PM 61.2°F16.2°C 51.3°F10.7°C 70% 3.8 mph NE6.1 kmh NE 6.0 mph9.7 kmh 30.09 in1019.0 mb 0.00 in0.0 mm 0.00 in0.0 mm 0.00 in0.0 mm
01:45 PM 61.0°F16.1°C 50.3°F10.2°C 68% 6.9 mph E11.1 kmh E 11.4 mph18.3 kmh 30.53 in1033.9 mb 0.00 in0.0 mm 0.00 in0.0 mm 0.00 in0.0 mm
02:00 PM 61.7°F16.5°C 50.6°F10.3°C 67% 4.5 mph E7.2 kmh E 13.6 mph21.9 kmh 30.53 in1033.9 mb 0.00 in0.0 mm 0.00 in0.0 mm 0.00 in0.0 mm
02:11 PM 61.7°F16.5°C 50.6°F10.3°C 67% 9.8 mph SE15.8 kmh SE 13.6 mph21.9 kmh 30.08 in1018.6 mb 0.00 in0.0 mm 0.00 in0.0 mm 0.00 in0.0 mm
02:15 PM 62.2°F16.8°C 50.7°F10.4°C 66% 6.9 mph NE11.1 kmh NE 15.2 mph24.5 kmh 30.52 in1033.5 mb 0.00 in0.0 mm 0.00 in0.0 mm 0.00 in0.0 mm
02:30 PM 63.0°F17.2°C 51.0°F10.6°C 65% 4.5 mph E7.2 kmh E 10.7 mph17.2 kmh 30.53 in1033.9 mb 0.00 in0.0 mm 0.00 in0.0 mm 0.00 in0.0 mm
02:41 PM 63.0°F17.2°C 51.0°F10.6°C 65% 6.0 mph NE9.7 kmh NE 7.6 mph12.2 kmh 30.08 in1018.6 mb 0.00 in0.0 mm 0.00 in0.0 mm 0.00 in0.0 mm
02:45 PM 62.6°F17.0°C 50.2°F10.1°C 64% 6.0 mph ESE9.7 kmh ESE 12.1 mph19.5 kmh 30.51 in1033.2 mb 0.00 in0.0 mm 0.00 in0.0 mm 0.00 in0.0 mm
03:00 PM 61.7°F16.5°C 50.2°F10.1°C 66% 6.9 mph NE11.1 kmh NE 8.3 mph13.4 kmh 30.52 in1033.5 mb 0.00 in0.0 mm 0.00 in0.0 mm 0.00 in0.0 mm
03:11 PM 61.5°F16.4°C 50.1°F10.1°C 66% 6.0 mph NE9.7 kmh NE 7.6 mph12.2 kmh 30.07 in1018.3 mb 0.00 in0.0 mm 0.00 in0.0 mm 0.00 in0.0 mm
03:15 PM 61.3°F16.3°C 49.9°F9.9°C 66% 7.6 mph NE12.2 kmh NE 10.7 mph17.2 kmh 30.52 in1033.5 mb 0.00 in0.0 mm 0.00 in0.0 mm 0.00 in0.0 mm
03:30 PM 61.3°F16.3°C 49.9°F9.9°C 66% 2.2 mph E3.5 kmh E 10.7 mph17.2 kmh 30.52 in1033.5 mb 0.00 in0.0 mm 0.00 in0.0 mm 0.00 in0.0 mm
03:41 PM 61.2°F16.2°C 49.7°F9.8°C 66% 7.6 mph NE12.2 kmh NE 9.8 mph15.8 kmh 30.07 in1018.3 mb 0.00 in0.0 mm 0.00 in0.0 mm 0.00 in0.0 mm
03:45 PM 60.4°F15.8°C 49.0°F9.4°C 66% 3.1 mph NE5.0 kmh NE 12.1 mph19.5 kmh 30.51 in1033.2 mb 0.00 in0.0 mm 0.00 in0.0 mm 0.00 in0.0 mm
04:00 PM 60.1°F15.6°C 48.7°F9.3°C 66% 4.5 mph NE7.2 kmh NE 13.0 mph20.9 kmh 30.51 in1033.2 mb 0.00 in0.0 mm 0.00 in0.0 mm 0.00 in0.0 mm
04:11 PM 59.9°F15.5°C 48.5°F9.2°C 66% 6.0 mph NE9.7 kmh NE 8.3 mph13.4 kmh 30.07 in1018.3 mb 0.00 in0.0 mm 0.00 in0.0 mm 0.00 in0.0 mm
04:15 PM 59.5°F15.3°C 48.6°F9.2°C 67% 6.9 mph NE11.1 kmh NE 9.2 mph14.8 kmh 30.51 in1033.2 mb 0.00 in0.0 mm 0.00 in0.0 mm 0.00 in0.0 mm
04:30 PM 58.8°F14.9°C 47.9°F8.8°C 67% 6.9 mph NE11.1 kmh NE 11.4 mph18.3 kmh 30.52 in1033.5 mb 0.00 in0.0 mm 0.00 in0.0 mm 0.00 in0.0 mm
04:41 PM 58.6°F14.8°C 47.7°F8.7°C 67% 4.5 mph E7.2 kmh E 5.4 mph8.7 kmh 30.08 in1018.6 mb 0.00 in0.0 mm 0.00 in0.0 mm 0.00 in0.0 mm
04:45 PM 58.1°F14.5°C 47.6°F8.7°C 68% 3.8 mph NE6.1 kmh NE 10.7 mph17.2 kmh 30.52 in1033.5 mb 0.00 in0.0 mm 0.00 in0.0 mm 0.00 in0.0 mm
05:00 PM 57.4°F14.1°C 47.3°F8.5°C 69% 5.4 mph NE8.7 kmh NE 8.3 mph13.4 kmh 30.52 in1033.5 mb 0.00 in0.0 mm 0.00 in0.0 mm 0.00 in0.0 mm
05:11 PM 57.2°F14.0°C 47.1°F8.4°C 69% 2.2 mph NE3.5 kmh NE 3.1 mph5.0 kmh 30.08 in1018.6 mb 0.00 in0.0 mm 0.00 in0.0 mm 0.00 in0.0 mm
05:15 PM 56.7°F13.7°C 47.0°F8.3°C 70% 5.4 mph NE8.7 kmh NE 8.3 mph13.4 kmh 30.52 in1033.5 mb 0.00 in0.0 mm 0.00 in0.0 mm 0.00 in0.0 mm
05:30 PM 55.8°F13.2°C 46.1°F7.8°C 70% 6.0 mph NE9.7 kmh NE 8.3 mph13.4 kmh 30.52 in1033.5 mb 0.00 in0.0 mm 0.00 in0.0 mm 0.00 in0.0 mm
05:41 PM 55.6°F13.1°C 45.9°F7.7°C 70% 3.8 mph NE6.1 kmh NE 5.4 mph8.7 kmh 30.09 in1019.0 mb 0.00 in0.0 mm 0.00 in0.0 mm 0.00 in0.0 mm
05:45 PM 54.9°F12.7°C 45.3°F7.4°C 70% 3.8 mph NE6.1 kmh NE 7.6 mph12.2 kmh 30.53 in1033.9 mb 0.00 in0.0 mm 0.00 in0.0 mm 0.00 in0.0 mm
06:00 PM 54.3°F12.4°C 45.8°F7.7°C 73% 3.1 mph NE5.0 kmh NE 7.6 mph12.2 kmh 30.54 in1034.2 mb 0.00 in0.0 mm 0.00 in0.0 mm 0.00 in0.0 mm
06:11 PM 54.3°F12.4°C 45.8°F7.7°C 73% 4.5 mph N7.2 kmh N 6.9 mph11.1 kmh 30.09 in1019.0 mb 0.00 in0.0 mm 0.00 in0.0 mm 0.00 in0.0 mm
06:15 PM 53.8°F12.1°C 45.7°F7.6°C 74% 3.1 mph NE5.0 kmh NE 6.0 mph9.7 kmh 30.54 in1034.2 mb 0.00 in0.0 mm 0.00 in0.0 mm 0.00 in0.0 mm
06:30 PM 53.1°F11.7°C 45.0°F7.2°C 74% 3.1 mph NE5.0 kmh NE 5.4 mph8.7 kmh 30.54 in1034.2 mb 0.00 in0.0 mm 0.00 in0.0 mm 0.00 in0.0 mm
06:41 PM 52.9°F11.6°C 44.8°F7.1°C 74% 3.8 mph NE6.1 kmh NE 4.5 mph7.2 kmh 30.10 in1019.3 mb 0.00 in0.0 mm 0.00 in0.0 mm 0.00 in0.0 mm
06:45 PM 52.5°F11.4°C 44.8°F7.1°C 75% 3.8 mph NE6.1 kmh NE 6.9 mph11.1 kmh 30.54 in1034.2 mb 0.00 in0.0 mm 0.00 in0.0 mm 0.00 in0.0 mm
07:00 PM 52.3°F11.3°C 45.0°F7.2°C 76% 3.1 mph NE5.0 kmh NE 4.5 mph7.2 kmh 30.54 in1034.2 mb 0.00 in0.0 mm 0.00 in0.0 mm 0.00 in0.0 mm
07:11 PM 52.3°F11.3°C 45.0°F7.2°C 76% 3.1 mph NE5.0 kmh NE 4.5 mph7.2 kmh 30.10 in1019.3 mb 0.00 in0.0 mm 0.00 in0.0 mm 0.00 in0.0 mm
07:15 PM 51.8°F11.0°C 44.8°F7.1°C 77% 3.8 mph NE6.1 kmh NE 6.0 mph9.7 kmh 30.54 in1034.2 mb 0.00 in0.0 mm 0.00 in0.0 mm 0.00 in0.0 mm
07:30 PM 51.4°F10.8°C 44.5°F6.9°C 77% 3.1 mph NE5.0 kmh NE 6.0 mph9.7 kmh 30.54 in1034.2 mb 0.00 in0.0 mm 0.00 in0.0 mm 0.00 in0.0 mm
07:41 PM 51.4°F10.8°C 44.5°F6.9°C 77% 3.1 mph NE5.0 kmh NE 4.5 mph7.2 kmh 30.09 in1019.0 mb 0.00 in0.0 mm 0.00 in0.0 mm 0.00 in0.0 mm
07:45 PM 51.1°F10.6°C 44.1°F6.7°C 77% 2.2 mph NE3.5 kmh NE 5.4 mph8.7 kmh 30.55 in1034.5 mb 0.00 in0.0 mm 0.00 in0.0 mm 0.00 in0.0 mm
08:00 PM 50.9°F10.5°C 43.9°F6.6°C 77% 3.1 mph NE5.0 kmh NE 7.6 mph12.2 kmh 30.55 in1034.5 mb 0.00 in0.0 mm 0.00 in0.0 mm 0.00 in0.0 mm
08:11 PM 50.9°F10.5°C 43.9°F6.6°C 77% 4.5 mph NE7.2 kmh NE 4.5 mph7.2 kmh 30.11 in1019.6 mb 0.00 in0.0 mm 0.00 in0.0 mm 0.00 in0.0 mm
08:15 PM 50.7°F10.4°C 43.8°F6.6°C 77% 3.1 mph NE5.0 kmh NE 4.5 mph7.2 kmh 30.55 in1034.5 mb 0.00 in0.0 mm 0.00 in0.0 mm 0.00 in0.0 mm
08:30 PM 50.5°F10.3°C 43.6°F6.4°C 77% 3.8 mph NE6.1 kmh NE 6.9 mph11.1 kmh 30.55 in1034.5 mb 0.00 in0.0 mm 0.00 in0.0 mm 0.00 in0.0 mm
08:41 PM 50.4°F10.2°C 43.4°F6.3°C 77% 2.2 mph E3.5 kmh E 3.1 mph5.0 kmh 30.11 in1019.6 mb 0.00 in0.0 mm 0.00 in0.0 mm 0.00 in0.0 mm
08:45 PM 50.2°F10.1°C 43.2°F6.2°C 77% 3.8 mph NE6.1 kmh NE 5.4 mph8.7 kmh 30.54 in1034.2 mb 0.00 in0.0 mm 0.00 in0.0 mm 0.00 in0.0 mm
09:00 PM 50.0°F10.0°C 43.1°F6.2°C 77% 4.5 mph NE7.2 kmh NE 6.9 mph11.1 kmh 30.54 in1034.2 mb 0.00 in0.0 mm 0.00 in0.0 mm 0.00 in0.0 mm
09:11 PM 50.0°F10.0°C 43.1°F6.2°C 77% 2.2 mph NE3.5 kmh NE 3.1 mph5.0 kmh 30.10 in1019.3 mb 0.00 in0.0 mm 0.00 in0.0 mm 0.00 in0.0 mm
09:15 PM 50.0°F10.0°C 43.1°F6.2°C 77% 3.1 mph NE5.0 kmh NE 6.9 mph11.1 kmh 30.54 in1034.2 mb 0.00 in0.0 mm 0.00 in0.0 mm 0.00 in0.0 mm
09:30 PM 49.6°F9.8°C 42.7°F5.9°C 77% 3.1 mph NE5.0 kmh NE 7.6 mph12.2 kmh 30.54 in1034.2 mb 0.00 in0.0 mm 0.00 in0.0 mm 0.00 in0.0 mm
09:41 PM 49.6°F9.8°C 42.7°F5.9°C 77% 5.4 mph NE8.7 kmh NE 6.0 mph9.7 kmh 30.10 in1019.3 mb 0.00 in0.0 mm 0.00 in0.0 mm 0.00 in0.0 mm
09:45 PM 49.6°F9.8°C 42.7°F5.9°C 77% 3.8 mph NE6.1 kmh NE 8.3 mph13.4 kmh 30.55 in1034.5 mb 0.00 in0.0 mm 0.00 in0.0 mm 0.00 in0.0 mm
10:00 PM 49.5°F9.7°C 42.5°F5.8°C 77% 3.1 mph ENE5.0 kmh ENE 6.9 mph11.1 kmh 30.55 in1034.5 mb 0.00 in0.0 mm 0.00 in0.0 mm 0.00 in0.0 mm
10:11 PM 49.5°F9.7°C 42.5°F5.8°C 77% 6.0 mph NE9.7 kmh NE 8.3 mph13.4 kmh 30.10 in1019.3 mb 0.00 in0.0 mm 0.00 in0.0 mm 0.00 in0.0 mm
10:15 PM 49.3°F9.6°C 42.4°F5.8°C 77% 2.2 mph ENE3.5 kmh ENE 6.0 mph9.7 kmh 30.54 in1034.2 mb 0.00 in0.0 mm 0.00 in0.0 mm 0.00 in0.0 mm
10:30 PM 48.9°F9.4°C 42.0°F5.6°C 77% 3.1 mph E5.0 kmh E 5.4 mph8.7 kmh 30.55 in1034.5 mb 0.00 in0.0 mm 0.00 in0.0 mm 0.00 in0.0 mm
10:41 PM 48.7°F9.3°C 41.8°F5.4°C 77% 4.5 mph E7.2 kmh E 5.4 mph8.7 kmh 30.10 in1019.3 mb 0.00 in0.0 mm 0.00 in0.0 mm 0.00 in0.0 mm
10:45 PM 48.6°F9.2°C 42.0°F5.6°C 78% 3.1 mph E5.0 kmh E 5.4 mph8.7 kmh 30.54 in1034.2 mb 0.00 in0.0 mm 0.00 in0.0 mm 0.00 in0.0 mm
11:00 PM 48.2°F9.0°C 42.0°F5.6°C 79% 5.4 mph ESE8.7 kmh ESE 6.9 mph11.1 kmh 30.55 in1034.5 mb 0.00 in0.0 mm 0.00 in0.0 mm 0.00 in0.0 mm
11:11 PM 48.2°F9.0°C 42.0°F5.6°C 79% 3.1 mph E5.0 kmh E 3.8 mph6.1 kmh 30.10 in1019.3 mb 0.00 in0.0 mm 0.00 in0.0 mm 0.00 in0.0 mm
11:15 PM 48.2°F9.0°C 42.3°F5.7°C 80% 4.5 mph E7.2 kmh E 8.3 mph13.4 kmh 30.55 in1034.5 mb 0.00 in0.0 mm 0.00 in0.0 mm 0.00 in0.0 mm
11:30 PM 47.8°F8.8°C 42.0°F5.6°C 80% 6.0 mph ESE9.7 kmh ESE 7.6 mph12.2 kmh 30.55 in1034.5 mb 0.00 in0.0 mm 0.00 in0.0 mm 0.00 in0.0 mm
11:41 PM 47.8°F8.8°C 42.0°F5.6°C 80% 3.8 mph E6.1 kmh E 5.4 mph8.7 kmh 30.10 in1019.3 mb 0.00 in0.0 mm 0.00 in0.0 mm 0.00 in0.0 mm
11:45 PM 47.8°F8.8°C 42.0°F5.6°C 80% 6.0 mph ESE9.7 kmh ESE 9.2 mph14.8 kmh 30.55 in1034.5 mb 0.00 in0.0 mm 0.00 in0.0 mm 0.00 in0.0 mm